Time;durP1;ratioP1;P1;durP2;ratioP2;P2;SDS_P1;SDS_P2;PMS_P1;PMS_P2;Temp;Humidity;BMP_temperature;BMP_pressure;BME280_temperature;BME280_humidity;BME280_pressure;Samples;Min_cycle;Max_cycle;Signal;HPM_P1;HPM_P2
2022/07/22 00:02:16;;;;;;;15.43;3.78;;;15.70;99.90;;;;;;5035420;28;20495;-68
2022/07/22 00:04:41;;;;;;;12.35;3.25;;;15.70;99.90;;;;;;5035468;28;20368;-69
2022/07/22 00:07:07;;;;;;;12.80;3.22;;;15.60;99.90;;;;;;5034955;28;20049;-68
2022/07/22 00:09:33;;;;;;;12.35;3.55;;;15.70;99.90;;;;;;5035679;28;20073;-69
2022/07/22 00:11:59;;;;;;;11.05;3.13;;;15.60;99.90;;;;;;5035496;28;20138;-68
2022/07/22 00:14:25;;;;;;;13.45;3.40;;;15.60;99.90;;;;;;5035470;28;20049;-69
2022/07/22 00:16:50;;;;;;;12.75;3.70;;;15.60;99.90;;;;;;5035637;28;20033;-68
2022/07/22 00:19:16;;;;;;;14.95;3.53;;;15.50;99.90;;;;;;5017976;28;20066;-69
2022/07/22 00:21:41;;;;;;;8.60;3.50;;;15.50;99.90;;;;;;5018285;28;20053;-69
2022/07/22 00:24:07;;;;;;;9.18;3.60;;;15.50;99.90;;;;;;5034369;28;20042;-68
2022/07/22 00:26:33;;;;;;;10.43;3.20;;;15.70;99.90;;;;;;5034941;28;20116;-70
2022/07/22 00:28:59;;;;;;;12.13;4.25;;;15.60;99.90;;;;;;5035117;28;20145;-68
2022/07/22 00:31:24;;;;;;;11.57;3.42;;;15.60;99.90;;;;;;5035413;28;20041;-68
2022/07/22 00:33:50;;;;;;;8.70;3.30;;;15.60;99.90;;;;;;5035203;28;20103;-70
2022/07/22 00:36:16;;;;;;;10.90;3.13;;;15.70;99.90;;;;;;5035166;28;20475;-68
2022/07/22 00:38:41;;;;;;;9.57;2.95;;;15.70;99.90;;;;;;5034818;28;20453;-69
2022/07/22 00:41:07;;;;;;;15.50;3.45;;;15.60;99.90;;;;;;5034301;28;20456;-69
2022/07/22 00:43:51;;;;;;;9.93;3.50;;;15.70;99.90;;;;;;5035047;28;20046;-69
2022/07/22 00:46:17;;;;;;;13.07;3.17;;;15.60;99.90;;;;;;5035150;28;20107;-69
2022/07/22 00:48:43;;;;;;;10.98;3.03;;;15.70;99.90;;;;;;5034992;28;20045;-69
2022/07/22 00:51:08;;;;;;;11.57;3.17;;;15.60;99.90;;;;;;5034916;28;20045;-68
2022/07/22 00:53:35;;;;;;;8.68;4.07;;;15.70;99.90;;;;;;5018977;28;20506;-68
2022/07/22 00:56:03;;;;;;;10.00;3.15;;;15.60;99.90;;;;;;5015300;28;20038;-68
2022/07/22 00:58:28;;;;;;;9.82;3.42;;;15.60;99.90;;;;;;5020489;28;20124;-68
2022/07/22 01:00:54;;;;;;;9.88;3.35;;;15.60;99.90;;;;;;5034730;28;20591;-70
2022/07/22 01:03:20;;;;;;;11.05;3.65;;;15.60;99.90;;;;;;5034898;28;20102;-70
2022/07/22 01:05:45;;;;;;;14.07;3.63;;;15.50;99.90;;;;;;5034514;28;20037;-68
2022/07/22 01:08:12;;;;;;;7.90;3.42;;;15.50;99.90;;;;;;5035011;28;20053;-69
2022/07/22 01:10:38;;;;;;;9.88;2.97;;;15.50;99.90;;;;;;5035009;28;20049;-68
2022/07/22 01:13:03;;;;;;;10.60;3.63;;;15.40;99.90;;;;;;5017539;28;20041;-69
2022/07/22 01:15:29;;;;;;;11.88;3.90;;;15.50;99.90;;;;;;5033978;28;20042;-69
2022/07/22 01:17:54;;;;;;;10.35;3.22;;;15.60;99.90;;;;;;5034754;28;20363;-69
2022/07/22 01:20:20;;;;;;;7.65;3.30;;;15.50;99.90;;;;;;5034571;28;20045;-69
2022/07/22 01:22:45;;;;;;;9.52;3.35;;;15.60;99.90;;;;;;5034341;28;20057;-69
2022/07/22 01:25:11;;;;;;;9.77;3.30;;;15.60;99.90;;;;;;5034638;28;20045;-69
2022/07/22 01:27:37;;;;;;;7.53;2.97;;;15.50;99.90;;;;;;5034227;28;20514;-69
2022/07/22 01:30:06;;;;;;;7.53;3.10;;;15.50;99.90;;;;;;5034569;28;20049;-68
2022/07/22 01:32:32;;;;;;;11.40;3.05;;;15.50;99.90;;;;;;5016661;28;20077;-69
2022/07/22 01:34:57;;;;;;;6.28;2.88;;;15.50;99.90;;;;;;5034346;28;20096;-68
2022/07/22 01:37:23;;;;;;;7.93;3.03;;;15.60;99.90;;;;;;5034803;28;20104;-68
2022/07/22 01:39:49;;;;;;;9.15;3.38;;;15.50;99.90;;;;;;5035390;28;20057;-69
2022/07/22 01:42:15;;;;;;;8.00;2.95;;;15.50;99.90;;;;;;5038453;28;20042;-67
2022/07/22 01:44:41;;;;;;;9.27;3.80;;;15.40;99.90;;;;;;5038355;28;20037;-68
2022/07/22 01:47:07;;;;;;;9.10;3.08;;;15.40;99.90;;;;;;5038114;28;20069;-68
2022/07/22 01:49:34;;;;;;;9.60;2.80;;;15.30;99.90;;;;;;5037494;28;20475;-68
2022/07/22 01:52:00;;;;;;;6.75;3.20;;;15.40;99.90;;;;;;5037940;28;20124;-68
2022/07/22 01:54:26;;;;;;;8.95;2.83;;;15.30;99.90;;;;;;5020713;28;20430;-68
2022/07/22 01:56:52;;;;;;;6.82;3.13;;;15.40;99.90;;;;;;5038478;28;20132;-67
2022/07/22 01:59:18;;;;;;;10.15;3.40;;;15.40;99.90;;;;;;5038114;28;20444;-68
2022/07/22 02:01:43;;;;;;;7.60;3.17;;;15.30;99.90;;;;;;5038065;28;20080;-69
2022/07/22 02:04:09;;;;;;;7.63;2.90;;;15.30;99.90;;;;;;5037926;28;20076;-68
2022/07/22 02:06:34;;;;;;;8.55;3.20;;;15.30;99.90;;;;;;5037054;28;20447;-69
2022/07/22 02:09:00;;;;;;;7.35;2.80;;;15.30;99.90;;;;;;5037672;28;20049;-68
2022/07/22 02:11:26;;;;;;;8.00;3.17;;;15.30;99.90;;;;;;5037847;28;20107;-68
2022/07/22 02:13:52;;;;;;;7.82;3.17;;;15.30;99.90;;;;;;5037748;28;20048;-67
2022/07/22 02:16:18;;;;;;;7.55;3.28;;;15.30;99.90;;;;;;5037870;28;20045;-69
2022/07/22 02:18:43;;;;;;;7.75;3.20;;;15.40;99.90;;;;;;5037365;28;20052;-68
2022/07/22 02:21:09;;;;;;;7.63;3.28;;;15.40;99.90;;;;;;5037153;28;20119;-69
2022/07/22 02:23:34;;;;;;;7.25;2.70;;;15.30;99.90;;;;;;5016728;28;20049;-67
2022/07/22 02:26:00;;;;;;;8.57;3.45;;;15.40;99.90;;;;;;5017410;28;20050;-69
2022/07/22 02:28:26;;;;;;;9.73;3.88;;;15.30;99.90;;;;;;5017720;28;20061;-69
2022/07/22 02:30:51;;;;;;;10.38;3.47;;;15.30;99.90;;;;;;5017821;28;20371;-69
2022/07/22 02:33:17;;;;;;;6.97;3.00;;;15.40;99.90;;;;;;5017699;28;20064;-69
2022/07/22 02:35:42;;;;;;;8.13;3.30;;;15.40;99.90;;;;;;5017406;28;20045;-68
2022/07/22 02:38:08;;;;;;;9.73;3.20;;;15.40;99.90;;;;;;5017463;28;20486;-69
2022/07/22 02:40:34;;;;;;;8.50;3.65;;;15.30;99.90;;;;;;5023596;28;20045;-69
2022/07/22 02:43:00;;;;;;;10.02;2.88;;;15.30;99.90;;;;;;5037500;28;20474;-69
2022/07/22 02:45:25;;;;;;;7.60;3.05;;;15.40;99.90;;;;;;5037007;28;20049;-69
2022/07/22 02:47:53;;;;;;;7.68;2.70;;;15.40;99.90;;;;;;5037152;28;20037;-69
2022/07/22 02:50:19;;;;;;;5.63;2.63;;;15.50;99.90;;;;;;5036942;28;20343;-68
2022/07/22 02:52:44;;;;;;;9.77;3.80;;;15.50;99.90;;;;;;5037036;28;20049;-68
2022/07/22 02:55:10;;;;;;;11.23;2.97;;;15.40;99.90;;;;;;5036930;28;20337;-67
2022/07/22 02:57:36;;;;;;;7.63;2.90;;;15.50;99.90;;;;;;5019376;28;20057;-69
2022/07/22 03:00:04;;;;;;;7.93;2.95;;;15.40;99.90;;;;;;5036634;28;20049;-69
2022/07/22 03:02:29;;;;;;;7.95;3.20;;;15.40;99.90;;;;;;5019497;28;20061;-68
2022/07/22 03:04:55;;;;;;;5.28;2.58;;;15.40;99.90;;;;;;5036714;28;20360;-68
2022/07/22 03:07:20;;;;;;;9.23;3.33;;;15.40;99.90;;;;;;5036504;28;20045;-68
2022/07/22 03:09:46;;;;;;;7.53;3.45;;;15.40;99.90;;;;;;5002668;28;20049;-68
2022/07/22 03:12:12;;;;;;;10.95;2.75;;;15.40;99.90;;;;;;5018977;28;20049;-68
2022/07/22 03:14:37;;;;;;;10.43;3.08;;;15.30;99.90;;;;;;5035925;28;20140;-69
2022/07/22 03:17:03;;;;;;;9.60;2.80;;;15.40;99.90;;;;;;5036682;28;20053;-68
2022/07/22 03:19:28;;;;;;;6.90;2.80;;;15.30;99.90;;;;;;5036266;28;20033;-68
2022/07/22 03:21:54;;;;;;;9.05;3.05;;;15.30;99.90;;;;;;5002958;28;20502;-70
2022/07/22 03:24:19;;;;;;;7.75;2.80;;;15.30;99.90;;;;;;5036493;28;20042;-68
2022/07/22 03:26:45;;;;;;;6.40;2.72;;;15.30;99.90;;;;;;5036101;28;20045;-68
2022/07/22 03:29:10;;;;;;;9.15;2.60;;;15.40;99.90;;;;;;5036232;28;20053;-67
2022/07/22 03:31:36;;;;;;;6.45;2.88;;;15.40;99.90;;;;;;5035647;28;20045;-70
2022/07/22 03:34:02;;;;;;;11.55;3.38;;;15.50;99.90;;;;;;5018614;28;20061;-69
2022/07/22 03:36:29;;;;;;;6.90;2.70;;;15.40;99.90;;;;;;5036186;28;20038;-69
2022/07/22 03:38:55;;;;;;;8.68;3.03;;;15.40;99.90;;;;;;5036141;28;20053;-68
2022/07/22 03:41:21;;;;;;;9.77;4.10;;;15.50;99.90;;;;;;5019106;28;20057;-69
2022/07/22 03:43:47;;;;;;;8.18;3.25;;;15.50;99.90;;;;;;5036375;28;20076;-68
2022/07/22 03:46:13;;;;;;;7.53;2.60;;;15.50;99.90;;;;;;5035518;28;20372;-68
2022/07/22 03:48:39;;;;;;;10.93;2.92;;;15.60;99.90;;;;;;5034979;28;20041;-67
2022/07/22 03:51:05;;;;;;;10.35;2.65;;;15.50;99.90;;;;;;5035843;28;20060;-68
2022/07/22 03:53:32;;;;;;;14.90;3.08;;;15.50;99.90;;;;;;5035656;28;20430;-69
2022/07/22 03:55:58;;;;;;;5.97;2.75;;;15.50;99.90;;;;;;5035742;28;20045;-69
2022/07/22 03:58:24;;;;;;;12.45;2.90;;;15.60;99.90;;;;;;5035773;28;20133;-71
2022/07/22 04:00:50;;;;;;;11.95;2.90;;;15.50;99.90;;;;;;5035846;28;20045;-68
2022/07/22 04:03:15;;;;;;;7.90;2.67;;;15.60;99.90;;;;;;5034955;28;20574;-70
2022/07/22 04:05:41;;;;;;;5.63;2.38;;;15.50;99.90;;;;;;5034833;28;20080;-69
2022/07/22 04:08:06;;;;;;;10.98;3.30;;;15.50;99.90;;;;;;5031757;28;20064;-69
2022/07/22 04:10:32;;;;;;;10.93;2.97;;;15.50;99.90;;;;;;5015518;28;20384;-70
2022/07/22 04:12:58;;;;;;;7.70;3.50;;;15.50;99.90;;;;;;5015690;28;20041;-69
2022/07/22 04:15:23;;;;;;;8.40;3.28;;;15.40;99.90;;;;;;5015608;28;20082;-69
2022/07/22 04:17:49;;;;;;;11.73;3.50;;;15.50;99.90;;;;;;5015696;28;20057;-70
2022/07/22 04:20:15;;;;;;;6.70;2.95;;;15.50;99.90;;;;;;5027575;28;20080;-69
2022/07/22 04:22:40;;;;;;;7.85;2.38;;;15.50;99.90;;;;;;5034682;28;20042;-70
2022/07/22 04:25:06;;;;;;;8.50;3.22;;;15.60;99.90;;;;;;5035378;28;20121;-69
2022/07/22 04:27:32;;;;;;;8.25;2.92;;;15.50;99.90;;;;;;5034475;28;20054;-69
2022/07/22 04:29:58;;;;;;;9.02;2.95;;;15.60;99.90;;;;;;5034463;28;20041;-68
2022/07/22 04:32:24;;;;;;;6.25;2.63;;;15.70;99.90;;;;;;5034433;28;20445;-67
2022/07/22 04:34:49;;;;;;;10.55;2.63;;;15.60;99.90;;;;;;5034219;28;20427;-69
2022/07/22 04:37:15;;;;;;;3.55;2.33;;;15.70;99.90;;;;;;5034549;28;20128;-68
2022/07/22 04:39:40;;;;;;;6.90;2.60;;;15.70;99.90;;;;;;5033490;28;20128;-69
2022/07/22 04:42:06;;;;;;;8.30;2.97;;;15.70;99.90;;;;;;5031544;28;20042;-68
2022/07/22 04:44:32;;;;;;;8.73;3.40;;;15.60;99.90;;;;;;5032601;28;20049;-70
2022/07/22 04:46:57;;;;;;;6.07;2.70;;;15.70;99.90;;;;;;5016515;28;20044;-68
2022/07/22 04:49:23;;;;;;;6.75;2.75;;;15.70;99.90;;;;;;5016824;28;20496;-67
2022/07/22 04:51:48;;;;;;;6.18;2.72;;;15.70;99.90;;;;;;5034214;28;20060;-69
2022/07/22 04:54:14;;;;;;;20.52;3.13;;;15.60;99.90;;;;;;5016737;28;20448;-66
2022/07/22 04:56:40;;;;;;;9.15;2.83;;;15.70;99.90;;;;;;5033139;28;20375;-66
2022/07/22 04:59:05;;;;;;;8.65;3.25;;;15.70;99.90;;;;;;5033623;28;20499;-66
2022/07/22 05:01:31;;;;;;;7.85;2.67;;;15.70;99.90;;;;;;5033265;28;20044;-67
2022/07/22 05:03:56;;;;;;;9.95;2.78;;;15.70;99.90;;;;;;5033789;28;20451;-67
2022/07/22 05:06:22;;;;;;;4.65;2.63;;;15.70;99.90;;;;;;5033776;28;20095;-67
2022/07/22 05:08:47;;;;;;;5.88;2.88;;;15.60;99.90;;;;;;5033393;28;20107;-68
2022/07/22 05:11:13;;;;;;;6.55;3.22;;;15.70;99.90;;;;;;5033996;28;20045;-69
2022/07/22 05:13:39;;;;;;;7.88;2.80;;;15.70;99.90;;;;;;5033280;28;20375;-66
2022/07/22 05:16:06;;;;;;;10.40;2.75;;;15.70;99.90;;;;;;5018270;28;20128;-70
2022/07/22 05:18:31;;;;;;;7.28;2.88;;;15.80;99.90;;;;;;5036534;28;20037;-67
2022/07/22 05:20:57;;;;;;;11.13;2.85;;;15.80;99.90;;;;;;5036584;28;20042;-69
2022/07/22 05:23:23;;;;;;;7.45;2.95;;;15.80;99.90;;;;;;5036678;28;20106;-70
2022/07/22 05:25:48;;;;;;;8.13;2.85;;;15.80;99.90;;;;;;5036440;28;20056;-68
2022/07/22 05:28:38;;;;;;;13.35;3.67;;;15.70;99.90;;;;;;5133168;27;20373;-69
2022/07/22 05:31:04;;;;;;;12.55;2.92;;;15.80;99.90;;;;;;5101374;28;20052;-67
2022/07/22 05:33:30;;;;;;;4.70;2.28;;;15.80;99.90;;;;;;5091896;28;20234;-66
2022/07/22 05:35:56;;;;;;;4.78;2.75;;;15.90;99.90;;;;;;5091413;28;20123;-68
2022/07/22 05:38:22;;;;;;;5.78;2.80;;;15.90;99.90;;;;;;5092432;28;20052;-66
2022/07/22 05:40:47;;;;;;;8.20;3.50;;;15.90;99.90;;;;;;5075512;28;20062;-66
2022/07/22 05:43:13;;;;;;;6.15;2.88;;;15.90;99.90;;;;;;5093728;28;20097;-66
2022/07/22 05:45:38;;;;;;;10.25;3.30;;;15.90;99.90;;;;;;5094250;28;20043;-66
2022/07/22 05:48:04;;;;;;;6.25;2.38;;;15.90;99.90;;;;;;5093089;28;20108;-66
2022/07/22 05:50:30;;;;;;;8.23;2.97;;;16.00;99.90;;;;;;5092520;28;20580;-66
2022/07/22 05:52:55;;;;;;;6.97;2.90;;;16.10;99.90;;;;;;5092188;28;20036;-66
2022/07/22 05:55:21;;;;;;;12.32;3.33;;;16.10;99.90;;;;;;5091874;28;20101;-65
2022/07/22 05:57:46;;;;;;;13.15;3.40;;;16.20;99.90;;;;;;5091892;28;20048;-65
2022/07/22 06:00:12;;;;;;;9.82;3.05;;;16.10;99.90;;;;;;5091891;28;20047;-64
2022/07/22 06:02:38;;;;;;;8.27;2.72;;;16.10;99.90;;;;;;5091662;28;20052;-64
2022/07/22 06:05:04;;;;;;;9.70;3.38;;;16.20;99.90;;;;;;5102047;28;20054;-64
2022/07/22 06:07:29;;;;;;;8.80;3.17;;;16.20;99.90;;;;;;5111832;28;20090;-65
2022/07/22 06:09:55;;;;;;;8.52;3.90;;;16.30;99.90;;;;;;5111958;28;20090;-64
2022/07/22 06:12:21;;;;;;;6.57;2.75;;;16.20;99.90;;;;;;5112022;28;20164;-65
2022/07/22 06:14:46;;;;;;;7.05;2.90;;;16.20;99.90;;;;;;5111566;28;20466;-65
2022/07/22 06:17:12;;;;;;;10.95;2.95;;;16.20;99.90;;;;;;5111991;28;20052;-65
2022/07/22 06:19:38;;;;;;;8.75;2.78;;;16.30;99.90;;;;;;5087128;28;20036;-65
2022/07/22 06:22:04;;;;;;;10.93;3.30;;;16.30;99.90;;;;;;5101820;28;20155;-65
2022/07/22 06:24:30;;;;;;;4.57;2.78;;;16.30;99.90;;;;;;5111910;28;20055;-65
2022/07/22 06:26:55;;;;;;;10.00;2.85;;;16.40;99.90;;;;;;5109990;28;20365;-64
2022/07/22 06:29:21;;;;;;;8.52;2.63;;;16.40;99.90;;;;;;5094377;28;20494;-66
2022/07/22 06:31:47;;;;;;;7.25;2.47;;;16.40;99.90;;;;;;5092052;28;20135;-69
2022/07/22 06:34:12;;;;;;;8.77;2.63;;;16.40;99.90;;;;;;5093549;28;20039;-72
2022/07/22 06:36:38;;;;;;;5.82;2.25;;;16.60;99.90;;;;;;5111915;28;20047;-68
2022/07/22 06:39:03;;;;;;;9.20;2.53;;;16.50;99.90;;;;;;5103649;28;20066;-70
2022/07/22 06:41:29;;;;;;;7.63;2.50;;;16.60;99.90;;;;;;5063122;28;20058;-69
2022/07/22 06:43:54;;;;;;;5.47;2.20;;;16.60;99.90;;;;;;5080429;28;20072;-69
2022/07/22 06:46:20;;;;;;;7.63;2.22;;;16.60;99.90;;;;;;5079957;28;20523;-71
2022/07/22 06:48:45;;;;;;;10.77;2.67;;;16.70;99.90;;;;;;5097912;28;20051;-71
2022/07/22 06:51:11;;;;;;;6.45;2.20;;;16.70;99.90;;;;;;5097881;28;20032;-69
2022/07/22 06:53:37;;;;;;;8.48;2.00;;;16.70;99.90;;;;;;5097889;28;20044;-69
2022/07/22 06:56:03;;;;;;;7.30;1.98;;;16.80;99.90;;;;;;5097075;28;20381;-69
2022/07/22 06:58:28;;;;;;;7.10;3.53;;;16.70;99.90;;;;;;5097490;28;20048;-70
2022/07/22 07:00:54;;;;;;;5.50;2.00;;;16.60;99.90;;;;;;5097666;28;20075;-71
2022/07/22 07:03:20;;;;;;;8.15;2.28;;;16.60;99.90;;;;;;5097572;28;20069;-71
2022/07/22 07:05:45;;;;;;;6.22;1.70;;;16.50;99.90;;;;;;5097740;28;20051;-70
2022/07/22 07:08:11;;;;;;;7.80;2.15;;;16.60;99.90;;;;;;5079534;28;20378;-68
2022/07/22 07:10:37;;;;;;;7.10;1.80;;;16.70;99.90;;;;;;5097586;28;20051;-68
2022/07/22 07:13:02;;;;;;;7.03;1.77;;;16.60;99.90;;;;;;5097472;28;20051;-68
2022/07/22 07:15:28;;;;;;;9.23;2.33;;;16.80;99.90;;;;;;5097249;28;20043;-69
2022/07/22 07:17:56;;;;;;;11.40;2.85;;;16.80;99.90;;;;;;5079526;28;20058;-69
2022/07/22 07:20:22;;;;;;;5.32;1.85;;;17.00;99.90;;;;;;5097325;28;20080;-69
2022/07/22 07:22:47;;;;;;;8.75;2.15;;;16.90;99.90;;;;;;5097457;28;20477;-71
2022/07/22 07:25:13;;;;;;;10.70;3.13;;;17.00;99.90;;;;;;5062612;28;20048;-69
2022/07/22 07:27:38;;;;;;;5.82;2.20;;;17.00;99.90;;;;;;5097470;28;20040;-69
2022/07/22 07:30:06;;;;;;;7.88;1.80;;;17.10;99.90;;;;;;5097050;28;20040;-69
2022/07/22 07:32:31;;;;;;;9.00;2.80;;;17.10;99.90;;;;;;5096849;28;20489;-69
2022/07/22 07:35:02;;;;;;;4.90;2.20;;;17.10;99.90;;;;;;5097003;28;20105;-68
2022/07/22 07:37:27;;;;;;;6.97;1.45;;;17.10;99.90;;;;;;5097025;28;20450;-69
2022/07/22 07:39:53;;;;;;;4.90;1.38;;;17.00;99.90;;;;;;5078921;28;20055;-71
2022/07/22 07:42:18;;;;;;;5.38;1.70;;;16.90;99.90;;;;;;5096953;28;20127;-68
2022/07/22 07:44:44;;;;;;;2.78;1.27;;;17.00;99.90;;;;;;5096741;28;20047;-70
2022/07/22 07:47:10;;;;;;;2.75;1.08;;;17.00;99.90;;;;;;5096759;28;20051;-70
2022/07/22 07:49:35;;;;;;;4.18;1.67;;;17.00;99.90;;;;;;5096788;28;20055;-68
2022/07/22 07:52:01;;;;;;;4.90;2.30;;;17.10;99.90;;;;;;5078021;28;20048;-68
2022/07/22 07:54:27;;;;;;;4.75;1.20;;;17.00;99.90;;;;;;5096823;28;20109;-69
2022/07/22 07:56:52;;;;;;;4.47;1.33;;;17.00;99.90;;;;;;5062309;28;20491;-69
2022/07/22 07:59:18;;;;;;;3.63;1.60;;;16.90;99.90;;;;;;5078390;28;20044;-68
2022/07/22 08:01:44;;;;;;;3.50;1.15;;;17.00;99.90;;;;;;5096565;28;20124;-68
2022/07/22 08:04:09;;;;;;;1.67;1.10;;;17.10;99.90;;;;;;5096442;28;20051;-68
2022/07/22 08:06:35;;;;;;;4.32;1.20;;;17.10;99.90;;;;;;5096487;28;20511;-72
2022/07/22 08:09:00;;;;;;;4.38;1.10;;;16.90;99.90;;;;;;5096575;28;20044;-69
2022/07/22 08:11:26;;;;;;;1.65;1.23;;;16.90;99.90;;;;;;5096350;28;20043;-68
2022/07/22 08:13:52;;;;;;;3.90;1.83;;;17.10;99.90;;;;;;5096198;28;20040;-71
2022/07/22 08:16:18;;;;;;;8.38;2.28;;;17.10;99.90;;;;;;5078557;28;20036;-71
2022/07/22 08:18:43;;;;;;;2.80;1.20;;;17.10;99.90;;;;;;5096302;28;20058;-68
2022/07/22 08:21:09;;;;;;;1.60;1.00;;;17.20;99.90;;;;;;5044232;28;20420;-68
2022/07/22 08:23:35;;;;;;;1.75;1.20;;;17.20;99.90;;;;;;5096149;28;20044;-69
2022/07/22 08:26:00;;;;;;;3.20;1.08;;;17.30;99.90;;;;;;5078296;28;20048;-69
2022/07/22 08:28:26;;;;;;;2.35;1.08;;;17.20;99.90;;;;;;5095456;28;20060;-69
2022/07/22 08:30:52;;;;;;;2.60;1.20;;;17.20;99.90;;;;;;5096126;28;20366;-68
2022/07/22 08:33:18;;;;;;;2.60;1.20;;;17.30;99.90;;;;;;5095972;28;20044;-70
2022/07/22 08:35:44;;;;;;;3.47;1.20;;;17.30;99.90;;;;;;5096195;28;20370;-72
2022/07/22 08:38:10;;;;;;;4.22;1.00;;;17.30;99.90;;;;;;5096154;28;20048;-69
2022/07/22 08:40:36;;;;;;;4.50;1.58;;;17.40;99.90;;;;;;5095391;28;20044;-69
2022/07/22 08:43:02;;;;;;;6.25;1.40;;;17.40;99.90;;;;;;5095704;28;20129;-72
2022/07/22 08:45:29;;;;;;;6.32;1.30;;;17.50;99.90;;;;;;5095991;28;20362;-71
2022/07/22 08:47:55;;;;;;;8.05;1.55;;;17.30;99.90;;;;;;5095922;28;20062;-69
2022/07/22 08:50:20;;;;;;;6.75;1.40;;;17.30;99.90;;;;;;5078145;28;20434;-68
2022/07/22 08:52:46;;;;;;;5.10;1.00;;;17.40;99.90;;;;;;5095809;28;20044;-69
2022/07/22 08:55:12;;;;;;;2.47;1.10;;;17.40;99.90;;;;;;5095841;28;20074;-71
2022/07/22 08:57:37;;;;;;;3.45;1.15;;;17.50;99.90;;;;;;5101261;28;20048;-67
2022/07/22 09:00:10;;;;;;;3.28;1.20;;;17.50;99.90;;;;;;5105763;28;20373;-67
2022/07/22 09:02:38;;;;;;;1.98;0.90;;;17.60;99.90;;;;;;5106193;28;20086;-68
2022/07/22 09:05:06;;;;;;;3.80;1.20;;;17.60;99.90;;;;;;5088867;28;20117;-68
2022/07/22 09:07:38;;;;;;;3.08;1.10;;;17.70;99.90;;;;;;5106132;28;20048;-67
2022/07/22 09:10:07;;;;;;;3.97;1.33;;;17.80;99.90;;;;;;5105731;28;20072;-71
2022/07/22 09:12:34;;;;;;;0.98;0.82;;;17.70;99.90;;;;;;5095354;28;20036;-69
2022/07/22 09:15:02;;;;;;;3.10;1.05;;;17.60;99.90;;;;;;5078018;28;20083;-70
2022/07/22 09:17:36;;;;;;;1.27;0.60;;;17.30;99.90;;;;;;5095134;28;20109;-68
2022/07/22 09:20:16;;;;;;;4.70;1.45;;;17.30;99.90;;;;;;5095258;28;20434;-69
2022/07/22 09:22:44;;;;;;;3.47;1.10;;;17.40;99.90;;;;;;5095108;28;20047;-70
2022/07/22 09:25:33;;;;;;;4.78;1.63;;;17.30;99.90;;;;;;5095239;28;20408;-68
2022/07/22 09:28:05;;;;;;;4.05;1.30;;;17.40;99.90;;;;;;5094910;28;20131;-71
2022/07/22 09:30:31;;;;;;;3.03;1.02;;;17.30;99.90;;;;;;5095147;28;20084;-68
2022/07/22 09:32:57;;;;;;;4.15;1.48;;;17.40;99.90;;;;;;5095196;28;20044;-68
2022/07/22 09:35:24;;;;;;;4.38;1.23;;;17.50;99.90;;;;;;5077236;28;20061;-70
2022/07/22 09:37:58;;;;;;;1.88;1.00;;;17.20;99.90;;;;;;5095208;28;20122;-70
2022/07/22 09:40:29;;;;;;;2.33;1.30;;;17.30;99.90;;;;;;5094643;28;20063;-68
2022/07/22 09:43:00;;;;;;;4.25;1.15;;;17.30;99.90;;;;;;5095183;28;20448;-69
2022/07/22 09:45:27;;;;;;;2.20;1.08;;;17.40;99.90;;;;;;5095095;28;20503;-70
2022/07/22 09:47:58;;;;;;;4.65;1.25;;;17.50;99.90;;;;;;5094711;28;20093;-69
2022/07/22 09:50:25;;;;;;;4.13;1.30;;;17.40;99.90;;;;;;5094894;28;20043;-71
2022/07/22 09:52:53;;;;;;;7.07;1.80;;;17.50;99.90;;;;;;5094675;28;20088;-71
2022/07/22 09:55:21;;;;;;;3.45;1.27;;;17.70;99.90;;;;;;5094802;28;20052;-71
2022/07/22 09:57:48;;;;;;;4.05;1.50;;;17.90;99.90;;;;;;5095009;28;20043;-69
2022/07/22 10:00:16;;;;;;;5.57;1.33;;;18.00;99.90;;;;;;5094553;28;20438;-72
2022/07/22 10:02:45;;;;;;;2.95;1.20;;;18.20;99.90;;;;;;5077137;28;20131;-70
2022/07/22 10:05:13;;;;;;;2.40;1.25;;;18.30;99.90;;;;;;5094736;28;20048;-70
2022/07/22 10:07:41;;;;;;;3.03;1.27;;;18.30;99.90;;;;;;5094900;28;20361;-70
2022/07/22 10:10:09;;;;;;;2.83;1.23;;;18.30;99.90;;;;;;5094897;28;20116;-70
2022/07/22 10:12:36;;;;;;;3.90;1.50;;;18.20;99.90;;;;;;5076486;28;20052;-68
2022/07/22 10:15:02;;;;;;;3.47;1.10;;;18.40;99.90;;;;;;5079694;28;20066;-71
2022/07/22 10:17:29;;;;;;;3.42;1.42;;;18.50;99.90;;;;;;5098214;28;20089;-70
2022/07/22 10:19:56;;;;;;;2.63;0.70;;;18.50;99.90;;;;;;5098345;28;20435;-71
2022/07/22 10:22:40;;;;;;;2.08;1.00;;;18.50;99.90;;;;;;5098584;28;20109;-72
2022/07/22 10:25:10;;;;;;;5.78;1.73;;;18.60;99.90;;;;;;5098483;28;20062;-70
2022/07/22 10:28:00;;;;;;;3.25;1.10;;;18.60;99.90;;;;;;5098113;28;20056;-69
2022/07/22 10:30:27;;;;;;;4.60;1.48;;;18.70;99.90;;;;;;5097873;28;20539;-72
2022/07/22 10:33:11;;;;;;;1.90;1.00;;;18.80;99.90;;;;;;5080707;28;20051;-69
2022/07/22 10:35:57;;;;;;;;;;;19.00;99.90;;;;;;5098600;28;20036;-73
2022/07/22 10:38:24;;;;;;;2.40;1.20;;;19.10;99.90;;;;;;5097712;28;19919;-71
2022/07/22 10:41:03;;;;;;;3.15;1.23;;;19.10;99.90;;;;;;5097979;28;20360;-69
2022/07/22 10:43:47;;;;;;;3.13;1.40;;;19.10;99.90;;;;;;5098228;28;20048;-69
2022/07/22 10:46:13;;;;;;;3.38;1.17;;;19.30;99.90;;;;;;5097804;28;20487;-70
2022/07/22 10:48:39;;;;;;;3.72;1.00;;;19.40;99.90;;;;;;5097947;28;20048;-69
2022/07/22 10:51:18;;;;;;;2.38;1.23;;;19.30;99.90;;;;;;5079863;28;20052;-69
2022/07/22 10:53:57;;;;;;;3.53;1.55;;;19.40;99.90;;;;;;5097886;28;20040;-70
2022/07/22 10:56:37;;;;;;;2.83;1.50;;;19.20;99.90;;;;;;5097674;28;20105;-68
2022/07/22 10:59:14;;;;;;;4.82;1.52;;;19.30;99.90;;;;;;5097396;28;20109;-71
2022/07/22 11:01:42;;;;;;;3.05;1.63;;;19.30;99.90;;;;;;5097836;28;20062;-71
2022/07/22 11:04:27;;;;;;;4.55;1.10;;;19.20;99.90;;;;;;5097787;28;20040;-69
2022/07/22 11:06:55;;;;;;;3.17;1.20;;;19.30;99.90;;;;;;5097427;28;20044;-71
2022/07/22 11:09:23;;;;;;;4.10;1.30;;;19.40;99.90;;;;;;5062025;28;20052;-71
2022/07/22 11:11:53;;;;;;;4.20;1.00;;;19.50;99.90;;;;;;5097613;28;20036;-70
2022/07/22 11:14:24;;;;;;;5.75;1.52;;;19.60;99.90;;;;;;5097770;28;20048;-70
2022/07/22 11:16:50;;;;;;;4.72;1.20;;;19.60;99.90;;;;;;5097467;28;20059;-70
2022/07/22 11:19:23;;;;;;;6.07;2.15;;;19.50;99.90;;;;;;5097470;28;20054;-69
2022/07/22 11:21:52;;;;;;;3.20;1.50;;;19.50;99.90;;;;;;5097359;28;20063;-71
2022/07/22 11:24:18;;;;;;;3.72;1.80;;;19.20;99.90;;;;;;5079887;28;20055;-69
2022/07/22 11:26:46;;;;;;;9.13;1.90;;;19.10;99.90;;;;;;5079363;28;20489;-70
2022/07/22 11:29:36;;;;;;;3.90;1.88;;;18.90;99.90;;;;;;5097175;28;20060;-71
2022/07/22 11:32:05;;;;;;;7.90;1.98;;;18.70;99.90;;;;;;5097072;28;20123;-71
2022/07/22 11:34:31;;;;;;;6.93;1.90;;;18.50;99.90;;;;;;5079336;28;20446;-71
2022/07/22 11:36:57;;;;;;;8.13;2.67;;;18.40;99.90;;;;;;5097224;28;20110;-71
2022/07/22 11:39:27;;;;;;;4.50;1.70;;;18.40;99.90;;;;;;5097324;28;20059;-69
2022/07/22 11:41:55;;;;;;;5.15;2.00;;;18.40;99.90;;;;;;5096427;28;20078;-72
2022/07/22 11:44:23;;;;;;;4.47;1.85;;;18.40;99.90;;;;;;5097256;28;20059;-69
2022/07/22 11:46:50;;;;;;;5.15;1.90;;;18.50;99.90;;;;;;5097045;28;20439;-68
2022/07/22 11:49:20;;;;;;;8.15;2.00;;;18.70;99.90;;;;;;5096891;28;20123;-71
2022/07/22 11:51:46;;;;;;;4.13;1.83;;;18.80;99.90;;;;;;5096897;28;20052;-72
2022/07/22 11:54:12;;;;;;;4.55;1.80;;;18.80;99.90;;;;;;5079150;28;20098;-70
2022/07/22 11:56:38;;;;;;;5.05;2.42;;;18.90;99.90;;;;;;5097068;28;20044;-70
2022/07/22 11:59:05;;;;;;;4.95;1.95;;;19.00;99.90;;;;;;5096540;28;20453;-73
2022/07/22 12:01:33;;;;;;;5.38;2.03;;;19.00;99.90;;;;;;5078751;28;20140;-69
2022/07/22 12:04:04;;;;;;;5.75;2.03;;;19.00;99.90;;;;;;5098187;28;20044;-69
2022/07/22 12:06:34;;;;;;;3.45;1.48;;;18.80;99.90;;;;;;5099753;28;20054;-72
2022/07/22 12:09:07;;;;;;;7.60;2.70;;;18.80;99.90;;;;;;5096732;28;20449;-71
2022/07/22 12:11:35;;;;;;;4.13;1.58;;;18.70;99.90;;;;;;5096784;28;20040;-68
2022/07/22 12:14:16;;;;;;;4.88;2.22;;;18.70;99.90;;;;;;5105100;28;20075;-68
2022/07/22 12:16:52;;;;;;;3.13;1.90;;;18.70;99.90;;;;;;5089036;28;20055;-69
2022/07/22 12:19:17;;;;;;;9.93;2.20;;;18.60;99.90;;;;;;5106360;28;20467;-69
2022/07/22 12:21:52;;;;;;;6.78;1.83;;;18.50;99.90;;;;;;5105943;28;20113;-69
2022/07/22 12:24:45;;;;;;;6.50;1.90;;;18.40;99.90;;;;;;5105826;28;20098;-68
2022/07/22 12:27:12;;;;;;;6.38;2.00;;;18.10;99.90;;;;;;5099659;28;20056;-70
2022/07/22 12:29:38;;;;;;;3.83;1.70;;;18.10;99.90;;;;;;5096321;28;20367;-69
2022/07/22 12:32:09;;;;;;;5.65;2.40;;;17.90;99.90;;;;;;5096084;28;20044;-70
2022/07/22 12:34:39;;;;;;;3.58;1.85;;;17.90;99.90;;;;;;5096167;28;20070;-71
2022/07/22 12:37:18;;;;;;;4.35;1.88;;;17.90;99.90;;;;;;5095354;28;20044;-71
2022/07/22 12:40:09;;;;;;;4.10;1.88;;;17.90;99.90;;;;;;5095973;28;20044;-70
2022/07/22 12:42:43;;;;;;;4.68;1.70;;;17.90;99.90;;;;;;5095807;28;20051;-70
2022/07/22 12:45:10;;;;;;;4.78;1.65;;;17.80;99.90;;;;;;5095351;28;20051;-69
2022/07/22 12:47:45;;;;;;;8.02;2.20;;;17.70;99.90;;;;;;5095631;28;20083;-70